sensor_id;sensor_type;location;lat;lon;timestamp;P1;durP1;ratioP1;P2;durP2;ratioP2
24421;SDS011;12600;53.326;-6.298;2024-01-07T00:00:06;51.35;;;26.80;;
24421;SDS011;12600;53.326;-6.298;2024-01-07T00:02:57;44.55;;;22.00;;
24421;SDS011;12600;53.326;-6.298;2024-01-07T00:05:46;41.63;;;21.67;;
24421;SDS011;12600;53.326;-6.298;2024-01-07T00:08:36;38.65;;;20.60;;
24421;SDS011;12600;53.326;-6.298;2024-01-07T00:11:25;44.72;;;22.83;;
24421;SDS011;12600;53.326;-6.298;2024-01-07T00:14:16;42.08;;;20.98;;
24421;SDS011;12600;53.326;-6.298;2024-01-07T00:17:06;45.03;;;21.00;;
24421;SDS011;12600;53.326;-6.298;2024-01-07T00:19:55;46.13;;;19.55;;
24421;SDS011;12600;53.326;-6.298;2024-01-07T00:22:45;39.88;;;19.10;;
24421;SDS011;12600;53.326;-6.298;2024-01-07T00:25:34;46.45;;;20.45;;
24421;SDS011;12600;53.326;-6.298;2024-01-07T00:28:23;47.75;;;22.88;;
24421;SDS011;12600;53.326;-6.298;2024-01-07T00:31:14;40.53;;;23.02;;
24421;SDS011;12600;53.326;-6.298;2024-01-07T00:34:03;54.20;;;27.25;;
24421;SDS011;12600;53.326;-6.298;2024-01-07T00:36:53;61.72;;;29.25;;
24421;SDS011;12600;53.326;-6.298;2024-01-07T00:39:43;60.45;;;31.08;;
24421;SDS011;12600;53.326;-6.298;2024-01-07T00:42:33;64.63;;;35.83;;
24421;SDS011;12600;53.326;-6.298;2024-01-07T00:45:22;90.68;;;50.20;;
24421;SDS011;12600;53.326;-6.298;2024-01-07T00:48:13;96.43;;;49.17;;
24421;SDS011;12600;53.326;-6.298;2024-01-07T00:51:03;99.60;;;52.83;;
24421;SDS011;12600;53.326;-6.298;2024-01-07T00:53:53;102.47;;;55.92;;
24421;SDS011;12600;53.326;-6.298;2024-01-07T00:56:42;102.50;;;53.97;;
24421;SDS011;12600;53.326;-6.298;2024-01-07T00:59:31;91.88;;;46.58;;
24421;SDS011;12600;53.326;-6.298;2024-01-07T01:02:21;71.47;;;38.20;;
24421;SDS011;12600;53.326;-6.298;2024-01-07T01:05:12;60.75;;;33.63;;
24421;SDS011;12600;53.326;-6.298;2024-01-07T01:08:02;54.20;;;26.10;;
24421;SDS011;12600;53.326;-6.298;2024-01-07T01:10:52;45.25;;;23.27;;
24421;SDS011;12600;53.326;-6.298;2024-01-07T01:13:41;42.88;;;22.05;;
24421;SDS011;12600;53.326;-6.298;2024-01-07T01:16:31;45.35;;;21.60;;
24421;SDS011;12600;53.326;-6.298;2024-01-07T01:19:20;39.70;;;18.95;;
24421;SDS011;12600;53.326;-6.298;2024-01-07T01:22:11;36.53;;;19.35;;
24421;SDS011;12600;53.326;-6.298;2024-01-07T01:25:01;34.60;;;17.00;;
24421;SDS011;12600;53.326;-6.298;2024-01-07T01:27:51;33.70;;;15.70;;
24421;SDS011;12600;53.326;-6.298;2024-01-07T01:30:40;35.17;;;16.77;;
24421;SDS011;12600;53.326;-6.298;2024-01-07T01:33:30;30.85;;;17.10;;
24421;SDS011;12600;53.326;-6.298;2024-01-07T01:36:19;34.50;;;17.00;;
24421;SDS011;12600;53.326;-6.298;2024-01-07T01:39:10;36.35;;;16.23;;
24421;SDS011;12600;53.326;-6.298;2024-01-07T01:42:00;37.97;;;16.50;;
24421;SDS011;12600;53.326;-6.298;2024-01-07T01:44:49;32.63;;;14.43;;
24421;SDS011;12600;53.326;-6.298;2024-01-07T01:47:39;30.08;;;13.70;;
24421;SDS011;12600;53.326;-6.298;2024-01-07T01:50:29;31.20;;;14.30;;
24421;SDS011;12600;53.326;-6.298;2024-01-07T01:53:19;27.77;;;14.48;;
24421;SDS011;12600;53.326;-6.298;2024-01-07T01:56:10;28.58;;;13.85;;
24421;SDS011;12600;53.326;-6.298;2024-01-07T01:59:00;27.42;;;14.07;;
24421;SDS011;12600;53.326;-6.298;2024-01-07T02:01:50;32.00;;;13.15;;
24421;SDS011;12600;53.326;-6.298;2024-01-07T02:04:40;31.23;;;14.27;;
24421;SDS011;12600;53.326;-6.298;2024-01-07T02:07:30;34.42;;;15.95;;
24421;SDS011;12600;53.326;-6.298;2024-01-07T02:10:20;35.13;;;15.63;;
24421;SDS011;12600;53.326;-6.298;2024-01-07T02:13:11;30.58;;;15.32;;
24421;SDS011;12600;53.326;-6.298;2024-01-07T02:16:00;45.67;;;23.98;;
24421;SDS011;12600;53.326;-6.298;2024-01-07T02:18:50;32.25;;;16.85;;
24421;SDS011;12600;53.326;-6.298;2024-01-07T02:21:39;32.80;;;15.32;;
24421;SDS011;12600;53.326;-6.298;2024-01-07T02:24:30;32.35;;;15.68;;
24421;SDS011;12600;53.326;-6.298;2024-01-07T02:27:20;32.60;;;16.55;;
24421;SDS011;12600;53.326;-6.298;2024-01-07T02:30:10;33.90;;;16.42;;
24421;SDS011;12600;53.326;-6.298;2024-01-07T02:33:03;29.50;;;16.35;;
24421;SDS011;12600;53.326;-6.298;2024-01-07T02:35:55;39.80;;;16.45;;
24421;SDS011;12600;53.326;-6.298;2024-01-07T02:38:44;31.23;;;16.13;;
24421;SDS011;12600;53.326;-6.298;2024-01-07T02:41:35;33.05;;;16.13;;
24421;SDS011;12600;53.326;-6.298;2024-01-07T02:44:24;43.42;;;20.88;;
24421;SDS011;12600;53.326;-6.298;2024-01-07T02:47:14;60.42;;;29.52;;
24421;SDS011;12600;53.326;-6.298;2024-01-07T02:50:03;33.50;;;16.40;;
24421;SDS011;12600;53.326;-6.298;2024-01-07T02:52:54;33.85;;;17.60;;
24421;SDS011;12600;53.326;-6.298;2024-01-07T02:55:43;32.63;;;16.05;;
24421;SDS011;12600;53.326;-6.298;2024-01-07T02:58:34;45.92;;;15.98;;
24421;SDS011;12600;53.326;-6.298;2024-01-07T03:01:23;28.88;;;15.23;;
24421;SDS011;12600;53.326;-6.298;2024-01-07T03:04:13;30.25;;;16.42;;
24421;SDS011;12600;53.326;-6.298;2024-01-07T03:07:04;36.25;;;17.15;;
24421;SDS011;12600;53.326;-6.298;2024-01-07T03:09:53;33.33;;;17.60;;
24421;SDS011;12600;53.326;-6.298;2024-01-07T03:12:43;30.38;;;16.65;;
24421;SDS011;12600;53.326;-6.298;2024-01-07T03:15:33;36.15;;;18.10;;
24421;SDS011;12600;53.326;-6.298;2024-01-07T03:18:23;36.65;;;17.40;;
24421;SDS011;12600;53.326;-6.298;2024-01-07T03:21:16;31.55;;;16.92;;
24421;SDS011;12600;53.326;-6.298;2024-01-07T03:24:06;33.88;;;16.55;;
24421;SDS011;12600;53.326;-6.298;2024-01-07T03:26:56;33.83;;;15.23;;
24421;SDS011;12600;53.326;-6.298;2024-01-07T03:29:45;37.63;;;16.67;;
24421;SDS011;12600;53.326;-6.298;2024-01-07T03:32:36;31.95;;;16.50;;
24421;SDS011;12600;53.326;-6.298;2024-01-07T03:35:25;42.20;;;17.55;;
24421;SDS011;12600;53.326;-6.298;2024-01-07T03:38:15;31.70;;;15.80;;
24421;SDS011;12600;53.326;-6.298;2024-01-07T03:41:05;35.05;;;16.50;;
24421;SDS011;12600;53.326;-6.298;2024-01-07T03:43:55;34.17;;;17.95;;
24421;SDS011;12600;53.326;-6.298;2024-01-07T03:46:44;38.47;;;17.42;;
24421;SDS011;12600;53.326;-6.298;2024-01-07T03:49:37;36.15;;;18.23;;
24421;SDS011;12600;53.326;-6.298;2024-01-07T03:52:27;33.92;;;18.20;;
24421;SDS011;12600;53.326;-6.298;2024-01-07T03:55:17;33.35;;;18.20;;
24421;SDS011;12600;53.326;-6.298;2024-01-07T03:58:06;32.20;;;16.73;;
24421;SDS011;12600;53.326;-6.298;2024-01-07T04:00:56;33.72;;;17.27;;
24421;SDS011;12600;53.326;-6.298;2024-01-07T04:03:45;36.78;;;17.38;;
24421;SDS011;12600;53.326;-6.298;2024-01-07T04:06:36;32.15;;;17.30;;
24421;SDS011;12600;53.326;-6.298;2024-01-07T04:09:26;37.05;;;17.27;;
24421;SDS011;12600;53.326;-6.298;2024-01-07T04:12:15;42.03;;;17.73;;
24421;SDS011;12600;53.326;-6.298;2024-01-07T04:15:05;38.08;;;17.65;;
24421;SDS011;12600;53.326;-6.298;2024-01-07T04:17:55;310.20;;;84.00;;
24421;SDS011;12600;53.326;-6.298;2024-01-07T04:20:44;51.50;;;21.40;;
24421;SDS011;12600;53.326;-6.298;2024-01-07T04:23:35;37.70;;;17.63;;
24421;SDS011;12600;53.326;-6.298;2024-01-07T04:26:24;52.78;;;23.10;;
24421;SDS011;12600;53.326;-6.298;2024-01-07T04:29:14;38.67;;;19.63;;
24421;SDS011;12600;53.326;-6.298;2024-01-07T04:32:03;45.88;;;23.10;;
24421;SDS011;12600;53.326;-6.298;2024-01-07T04:34:53;38.45;;;20.13;;
24421;SDS011;12600;53.326;-6.298;2024-01-07T04:37:43;37.17;;;17.23;;
24421;SDS011;12600;53.326;-6.298;2024-01-07T04:40:34;40.92;;;20.00;;
24421;SDS011;12600;53.326;-6.298;2024-01-07T04:43:23;44.20;;;20.40;;
24421;SDS011;12600;53.326;-6.298;2024-01-07T04:46:13;38.22;;;20.10;;
24421;SDS011;12600;53.326;-6.298;2024-01-07T04:49:03;41.40;;;20.50;;
24421;SDS011;12600;53.326;-6.298;2024-01-07T04:51:53;38.42;;;19.38;;
24421;SDS011;12600;53.326;-6.298;2024-01-07T04:54:42;38.20;;;17.98;;
24421;SDS011;12600;53.326;-6.298;2024-01-07T04:57:33;30.95;;;16.33;;
24421;SDS011;12600;53.326;-6.298;2024-01-07T05:00:22;34.28;;;17.02;;
24421;SDS011;12600;53.326;-6.298;2024-01-07T05:03:12;48.35;;;23.73;;
24421;SDS011;12600;53.326;-6.298;2024-01-07T05:06:01;50.78;;;27.50;;
24421;SDS011;12600;53.326;-6.298;2024-01-07T05:08:51;53.50;;;30.90;;
24421;SDS011;12600;53.326;-6.298;2024-01-07T05:11:40;47.78;;;25.20;;
24421;SDS011;12600;53.326;-6.298;2024-01-07T05:14:31;56.28;;;29.02;;
24421;SDS011;12600;53.326;-6.298;2024-01-07T05:17:20;47.47;;;25.75;;
24421;SDS011;12600;53.326;-6.298;2024-01-07T05:20:10;41.42;;;22.73;;
24421;SDS011;12600;53.326;-6.298;2024-01-07T05:23:00;38.40;;;20.60;;
24421;SDS011;12600;53.326;-6.298;2024-01-07T05:25:49;40.58;;;18.98;;
24421;SDS011;12600;53.326;-6.298;2024-01-07T05:28:39;37.50;;;17.42;;
24421;SDS011;12600;53.326;-6.298;2024-01-07T05:31:29;28.65;;;14.18;;
24421;SDS011;12600;53.326;-6.298;2024-01-07T05:34:19;27.45;;;14.05;;
24421;SDS011;12600;53.326;-6.298;2024-01-07T05:37:09;29.55;;;14.13;;
24421;SDS011;12600;53.326;-6.298;2024-01-07T05:39:58;31.45;;;13.98;;
24421;SDS011;12600;53.326;-6.298;2024-01-07T05:42:48;27.63;;;13.45;;
24421;SDS011;12600;53.326;-6.298;2024-01-07T05:45:37;31.65;;;14.35;;
24421;SDS011;12600;53.326;-6.298;2024-01-07T05:48:28;26.52;;;13.23;;
24421;SDS011;12600;53.326;-6.298;2024-01-07T05:51:17;27.38;;;13.35;;
24421;SDS011;12600;53.326;-6.298;2024-01-07T05:54:07;28.98;;;13.25;;
24421;SDS011;12600;53.326;-6.298;2024-01-07T05:56:56;27.25;;;13.20;;
24421;SDS011;12600;53.326;-6.298;2024-01-07T05:59:46;29.25;;;12.73;;
24421;SDS011;12600;53.326;-6.298;2024-01-07T06:02:40;34.10;;;13.60;;
24421;SDS011;12600;53.326;-6.298;2024-01-07T06:05:31;31.60;;;15.18;;
24421;SDS011;12600;53.326;-6.298;2024-01-07T06:08:21;38.83;;;19.17;;
24421;SDS011;12600;53.326;-6.298;2024-01-07T06:11:10;45.42;;;20.17;;
24421;SDS011;12600;53.326;-6.298;2024-01-07T06:14:05;39.38;;;20.48;;
24421;SDS011;12600;53.326;-6.298;2024-01-07T06:16:55;30.08;;;15.13;;
24421;SDS011;12600;53.326;-6.298;2024-01-07T06:19:44;31.40;;;15.27;;
24421;SDS011;12600;53.326;-6.298;2024-01-07T06:22:35;37.13;;;16.65;;
24421;SDS011;12600;53.326;-6.298;2024-01-07T06:25:25;30.48;;;15.70;;
24421;SDS011;12600;53.326;-6.298;2024-01-07T06:28:14;30.20;;;15.68;;
24421;SDS011;12600;53.326;-6.298;2024-01-07T06:31:04;30.00;;;15.45;;
24421;SDS011;12600;53.326;-6.298;2024-01-07T06:33:53;33.17;;;16.40;;
24421;SDS011;12600;53.326;-6.298;2024-01-07T06:36:44;36.58;;;17.27;;
24421;SDS011;12600;53.326;-6.298;2024-01-07T06:39:34;33.45;;;16.67;;
24421;SDS011;12600;53.326;-6.298;2024-01-07T06:42:24;30.83;;;15.65;;
24421;SDS011;12600;53.326;-6.298;2024-01-07T06:45:14;34.97;;;16.75;;
24421;SDS011;12600;53.326;-6.298;2024-01-07T06:48:04;35.17;;;17.25;;
24421;SDS011;12600;53.326;-6.298;2024-01-07T06:50:55;34.58;;;15.63;;
24421;SDS011;12600;53.326;-6.298;2024-01-07T06:53:46;34.47;;;16.13;;
24421;SDS011;12600;53.326;-6.298;2024-01-07T06:56:38;29.23;;;14.80;;
24421;SDS011;12600;53.326;-6.298;2024-01-07T06:59:28;32.15;;;14.85;;
24421;SDS011;12600;53.326;-6.298;2024-01-07T07:02:17;32.75;;;15.70;;
24421;SDS011;12600;53.326;-6.298;2024-01-07T07:05:09;30.30;;;15.25;;
24421;SDS011;12600;53.326;-6.298;2024-01-07T07:07:58;32.45;;;15.60;;
24421;SDS011;12600;53.326;-6.298;2024-01-07T07:10:48;30.98;;;14.93;;
24421;SDS011;12600;53.326;-6.298;2024-01-07T07:13:38;29.27;;;14.80;;
24421;SDS011;12600;53.326;-6.298;2024-01-07T07:16:28;31.42;;;16.05;;
24421;SDS011;12600;53.326;-6.298;2024-01-07T07:19:17;34.00;;;16.90;;
24421;SDS011;12600;53.326;-6.298;2024-01-07T07:22:07;38.05;;;17.30;;
24421;SDS011;12600;53.326;-6.298;2024-01-07T07:24:56;33.00;;;15.52;;
24421;SDS011;12600;53.326;-6.298;2024-01-07T07:27:48;41.10;;;16.98;;
24421;SDS011;12600;53.326;-6.298;2024-01-07T07:30:39;37.75;;;15.68;;
24421;SDS011;12600;53.326;-6.298;2024-01-07T07:33:29;34.88;;;15.70;;
24421;SDS011;12600;53.326;-6.298;2024-01-07T07:36:19;40.38;;;16.67;;
24421;SDS011;12600;53.326;-6.298;2024-01-07T07:39:08;42.05;;;17.30;;
24421;SDS011;12600;53.326;-6.298;2024-01-07T07:41:57;39.85;;;17.08;;
24421;SDS011;12600;53.326;-6.298;2024-01-07T07:44:47;42.05;;;17.48;;
24421;SDS011;12600;53.326;-6.298;2024-01-07T07:47:37;39.47;;;17.02;;
24421;SDS011;12600;53.326;-6.298;2024-01-07T07:50:28;40.08;;;18.25;;
24421;SDS011;12600;53.326;-6.298;2024-01-07T07:53:18;43.40;;;17.85;;
24421;SDS011;12600;53.326;-6.298;2024-01-07T07:56:08;40.20;;;17.58;;
24421;SDS011;12600;53.326;-6.298;2024-01-07T07:58:57;43.88;;;18.05;;
24421;SDS011;12600;53.326;-6.298;2024-01-07T08:01:47;36.83;;;17.10;;
24421;SDS011;12600;53.326;-6.298;2024-01-07T08:04:38;36.42;;;16.00;;
24421;SDS011;12600;53.326;-6.298;2024-01-07T08:07:29;37.30;;;15.48;;
24421;SDS011;12600;53.326;-6.298;2024-01-07T08:10:18;36.90;;;16.00;;
24421;SDS011;12600;53.326;-6.298;2024-01-07T08:13:08;41.45;;;16.60;;
24421;SDS011;12600;53.326;-6.298;2024-01-07T08:15:58;38.78;;;17.35;;
24421;SDS011;12600;53.326;-6.298;2024-01-07T08:18:47;41.92;;;15.68;;
24421;SDS011;12600;53.326;-6.298;2024-01-07T08:21:38;33.83;;;15.50;;
24421;SDS011;12600;53.326;-6.298;2024-01-07T08:24:28;34.75;;;15.55;;
24421;SDS011;12600;53.326;-6.298;2024-01-07T08:27:17;42.80;;;16.25;;
24421;SDS011;12600;53.326;-6.298;2024-01-07T08:30:08;37.95;;;15.63;;
24421;SDS011;12600;53.326;-6.298;2024-01-07T08:32:59;38.63;;;16.38;;
24421;SDS011;12600;53.326;-6.298;2024-01-07T08:35:49;44.20;;;16.85;;
24421;SDS011;12600;53.326;-6.298;2024-01-07T08:38:39;39.22;;;15.52;;
24421;SDS011;12600;53.326;-6.298;2024-01-07T08:41:29;37.72;;;15.52;;
24421;SDS011;12600;53.326;-6.298;2024-01-07T08:44:18;35.75;;;15.57;;
24421;SDS011;12600;53.326;-6.298;2024-01-07T08:47:07;38.08;;;15.95;;
24421;SDS011;12600;53.326;-6.298;2024-01-07T08:49:57;36.42;;;16.42;;
24421;SDS011;12600;53.326;-6.298;2024-01-07T08:52:46;42.33;;;16.77;;
24421;SDS011;12600;53.326;-6.298;2024-01-07T08:55:37;40.20;;;16.67;;
24421;SDS011;12600;53.326;-6.298;2024-01-07T08:58:26;39.28;;;16.35;;
24421;SDS011;12600;53.326;-6.298;2024-01-07T09:01:16;38.70;;;16.45;;
24421;SDS011;12600;53.326;-6.298;2024-01-07T09:04:05;32.22;;;13.50;;
24421;SDS011;12600;53.326;-6.298;2024-01-07T09:06:54;38.55;;;16.20;;
24421;SDS011;12600;53.326;-6.298;2024-01-07T09:09:44;37.63;;;16.33;;
24421;SDS011;12600;53.326;-6.298;2024-01-07T09:12:35;36.70;;;16.50;;
24421;SDS011;12600;53.326;-6.298;2024-01-07T09:15:26;33.42;;;15.75;;
24421;SDS011;12600;53.326;-6.298;2024-01-07T09:18:15;36.30;;;15.35;;
24421;SDS011;12600;53.326;-6.298;2024-01-07T09:21:05;45.67;;;16.05;;
24421;SDS011;12600;53.326;-6.298;2024-01-07T09:23:55;33.22;;;15.07;;
24421;SDS011;12600;53.326;-6.298;2024-01-07T09:26:45;33.25;;;15.00;;
24421;SDS011;12600;53.326;-6.298;2024-01-07T09:29:36;34.95;;;14.70;;
24421;SDS011;12600;53.326;-6.298;2024-01-07T09:32:25;34.72;;;15.05;;
24421;SDS011;12600;53.326;-6.298;2024-01-07T09:35:14;38.45;;;17.08;;
24421;SDS011;12600;53.326;-6.298;2024-01-07T09:38:04;39.50;;;16.67;;
24421;SDS011;12600;53.326;-6.298;2024-01-07T09:40:58;42.78;;;18.10;;
24421;SDS011;12600;53.326;-6.298;2024-01-07T09:43:48;39.45;;;17.85;;
24421;SDS011;12600;53.326;-6.298;2024-01-07T09:46:40;35.38;;;16.85;;
24421;SDS011;12600;53.326;-6.298;2024-01-07T09:49:31;39.80;;;17.35;;
24421;SDS011;12600;53.326;-6.298;2024-01-07T09:52:20;32.45;;;15.48;;
24421;SDS011;12600;53.326;-6.298;2024-01-07T09:55:11;34.10;;;16.42;;
24421;SDS011;12600;53.326;-6.298;2024-01-07T09:58:08;38.58;;;16.42;;
24421;SDS011;12600;53.326;-6.298;2024-01-07T10:00:58;35.10;;;17.15;;
24421;SDS011;12600;53.326;-6.298;2024-01-07T10:03:50;37.35;;;16.45;;
24421;SDS011;12600;53.326;-6.298;2024-01-07T10:06:39;36.75;;;16.52;;
24421;SDS011;12600;53.326;-6.298;2024-01-07T10:09:29;39.40;;;17.33;;
24421;SDS011;12600;53.326;-6.298;2024-01-07T10:12:22;34.70;;;15.98;;
24421;SDS011;12600;53.326;-6.298;2024-01-07T10:15:12;31.88;;;16.25;;
24421;SDS011;12600;53.326;-6.298;2024-01-07T10:18:05;37.17;;;17.92;;
24421;SDS011;12600;53.326;-6.298;2024-01-07T10:20:57;35.22;;;17.98;;
24421;SDS011;12600;53.326;-6.298;2024-01-07T10:23:53;37.47;;;17.23;;
24421;SDS011;12600;53.326;-6.298;2024-01-07T10:26:57;32.88;;;16.35;;
24421;SDS011;12600;53.326;-6.298;2024-01-07T10:29:48;39.40;;;19.27;;
24421;SDS011;12600;53.326;-6.298;2024-01-07T10:32:38;33.38;;;17.10;;
24421;SDS011;12600;53.326;-6.298;2024-01-07T10:35:32;39.60;;;18.88;;
24421;SDS011;12600;53.326;-6.298;2024-01-07T10:38:25;31.60;;;14.95;;
24421;SDS011;12600;53.326;-6.298;2024-01-07T10:41:14;31.77;;;15.57;;
24421;SDS011;12600;53.326;-6.298;2024-01-07T10:44:06;31.13;;;14.52;;
24421;SDS011;12600;53.326;-6.298;2024-01-07T10:46:56;32.88;;;15.90;;
24421;SDS011;12600;53.326;-6.298;2024-01-07T10:49:46;36.10;;;17.67;;
24421;SDS011;12600;53.326;-6.298;2024-01-07T10:52:39;38.22;;;19.48;;
24421;SDS011;12600;53.326;-6.298;2024-01-07T10:55:32;35.90;;;18.02;;
24421;SDS011;12600;53.326;-6.298;2024-01-07T10:58:24;37.95;;;17.15;;
24421;SDS011;12600;53.326;-6.298;2024-01-07T11:01:14;31.23;;;16.35;;
24421;SDS011;12600;53.326;-6.298;2024-01-07T11:04:06;34.85;;;15.63;;
24421;SDS011;12600;53.326;-6.298;2024-01-07T11:07:03;38.75;;;17.10;;
24421;SDS011;12600;53.326;-6.298;2024-01-07T11:10:12;36.88;;;17.35;;
24421;SDS011;12600;53.326;-6.298;2024-01-07T11:13:08;35.78;;;17.23;;
24421;SDS011;12600;53.326;-6.298;2024-01-07T11:15:58;40.70;;;17.98;;
24421;SDS011;12600;53.326;-6.298;2024-01-07T11:18:49;36.40;;;17.50;;
24421;SDS011;12600;53.326;-6.298;2024-01-07T11:21:40;40.53;;;19.13;;
24421;SDS011;12600;53.326;-6.298;2024-01-07T11:24:37;38.30;;;18.67;;
24421;SDS011;12600;53.326;-6.298;2024-01-07T11:27:29;42.08;;;19.58;;
24421;SDS011;12600;53.326;-6.298;2024-01-07T11:30:24;44.30;;;19.90;;
24421;SDS011;12600;53.326;-6.298;2024-01-07T11:33:14;51.30;;;21.57;;
24421;SDS011;12600;53.326;-6.298;2024-01-07T11:36:04;44.45;;;20.95;;
24421;SDS011;12600;53.326;-6.298;2024-01-07T11:38:54;40.28;;;19.60;;
24421;SDS011;12600;53.326;-6.298;2024-01-07T11:41:44;37.70;;;19.20;;
24421;SDS011;12600;53.326;-6.298;2024-01-07T11:44:34;35.00;;;17.90;;
24421;SDS011;12600;53.326;-6.298;2024-01-07T11:47:26;35.60;;;19.25;;
24421;SDS011;12600;53.326;-6.298;2024-01-07T11:50:16;40.83;;;19.33;;
24421;SDS011;12600;53.326;-6.298;2024-01-07T11:53:05;39.15;;;19.27;;
24421;SDS011;12600;53.326;-6.298;2024-01-07T11:55:55;41.88;;;21.42;;
24421;SDS011;12600;53.326;-6.298;2024-01-07T11:58:46;43.47;;;22.50;;
24421;SDS011;12600;53.326;-6.298;2024-01-07T12:01:35;45.75;;;24.13;;
24421;SDS011;12600;53.326;-6.298;2024-01-07T12:04:26;48.78;;;24.88;;
24421;SDS011;12600;53.326;-6.298;2024-01-07T12:07:16;42.33;;;22.98;;
24421;SDS011;12600;53.326;-6.298;2024-01-07T12:10:07;38.03;;;19.65;;
24421;SDS011;12600;53.326;-6.298;2024-01-07T12:12:59;39.78;;;22.13;;
24421;SDS011;12600;53.326;-6.298;2024-01-07T12:15:49;44.17;;;23.60;;
24421;SDS011;12600;53.326;-6.298;2024-01-07T12:18:39;45.42;;;22.55;;
24421;SDS011;12600;53.326;-6.298;2024-01-07T12:21:31;43.15;;;22.20;;
24421;SDS011;12600;53.326;-6.298;2024-01-07T12:24:24;34.50;;;19.15;;
24421;SDS011;12600;53.326;-6.298;2024-01-07T12:27:13;29.02;;;17.05;;
24421;SDS011;12600;53.326;-6.298;2024-01-07T12:30:04;33.22;;;17.83;;
24421;SDS011;12600;53.326;-6.298;2024-01-07T12:32:55;31.25;;;18.33;;
24421;SDS011;12600;53.326;-6.298;2024-01-07T12:35:46;38.53;;;21.10;;
24421;SDS011;12600;53.326;-6.298;2024-01-07T12:38:37;38.58;;;20.85;;
24421;SDS011;12600;53.326;-6.298;2024-01-07T12:41:27;31.83;;;19.42;;
24421;SDS011;12600;53.326;-6.298;2024-01-07T12:44:17;39.60;;;22.50;;
24421;SDS011;12600;53.326;-6.298;2024-01-07T12:47:07;39.00;;;21.30;;
24421;SDS011;12600;53.326;-6.298;2024-01-07T12:49:56;38.60;;;21.73;;
24421;SDS011;12600;53.326;-6.298;2024-01-07T12:52:46;43.13;;;23.95;;
24421;SDS011;12600;53.326;-6.298;2024-01-07T12:55:37;49.97;;;23.67;;
24421;SDS011;12600;53.326;-6.298;2024-01-07T12:58:26;37.08;;;21.77;;
24421;SDS011;12600;53.326;-6.298;2024-01-07T13:01:16;44.83;;;22.02;;
24421;SDS011;12600;53.326;-6.298;2024-01-07T13:04:06;44.47;;;25.27;;
24421;SDS011;12600;53.326;-6.298;2024-01-07T13:06:57;35.13;;;20.85;;
24421;SDS011;12600;53.326;-6.298;2024-01-07T13:09:46;68.38;;;27.42;;
24421;SDS011;12600;53.326;-6.298;2024-01-07T13:12:37;44.00;;;22.33;;
24421;SDS011;12600;53.326;-6.298;2024-01-07T13:15:36;42.47;;;21.15;;
24421;SDS011;12600;53.326;-6.298;2024-01-07T13:18:26;47.80;;;23.80;;
24421;SDS011;12600;53.326;-6.298;2024-01-07T13:21:15;41.90;;;21.77;;
24421;SDS011;12600;53.326;-6.298;2024-01-07T13:24:05;42.83;;;23.58;;
24421;SDS011;12600;53.326;-6.298;2024-01-07T13:26:54;49.72;;;24.38;;
24421;SDS011;12600;53.326;-6.298;2024-01-07T13:29:45;51.33;;;25.83;;
24421;SDS011;12600;53.326;-6.298;2024-01-07T13:32:35;49.13;;;24.13;;
24421;SDS011;12600;53.326;-6.298;2024-01-07T13:35:25;50.67;;;24.33;;
24421;SDS011;12600;53.326;-6.298;2024-01-07T13:38:14;40.15;;;21.70;;
24421;SDS011;12600;53.326;-6.298;2024-01-07T13:41:04;43.10;;;21.42;;
24421;SDS011;12600;53.326;-6.298;2024-01-07T13:43:53;42.15;;;21.75;;
24421;SDS011;12600;53.326;-6.298;2024-01-07T13:46:45;34.55;;;19.63;;
24421;SDS011;12600;53.326;-6.298;2024-01-07T13:49:35;41.15;;;19.40;;
24421;SDS011;12600;53.326;-6.298;2024-01-07T13:52:25;38.10;;;19.85;;
24421;SDS011;12600;53.326;-6.298;2024-01-07T13:55:16;41.42;;;20.13;;
24421;SDS011;12600;53.326;-6.298;2024-01-07T13:58:06;42.28;;;21.77;;
24421;SDS011;12600;53.326;-6.298;2024-01-07T14:00:56;38.25;;;19.08;;
24421;SDS011;12600;53.326;-6.298;2024-01-07T14:03:47;48.97;;;21.33;;
24421;SDS011;12600;53.326;-6.298;2024-01-07T14:06:36;32.80;;;16.33;;
24421;SDS011;12600;53.326;-6.298;2024-01-07T14:09:26;26.55;;;12.88;;
24421;SDS011;12600;53.326;-6.298;2024-01-07T14:15:08;27.48;;;13.10;;
24421;SDS011;12600;53.326;-6.298;2024-01-07T14:17:58;28.85;;;13.70;;
24421;SDS011;12600;53.326;-6.298;2024-01-07T14:20:50;28.40;;;13.52;;
24421;SDS011;12600;53.326;-6.298;2024-01-07T14:23:40;24.27;;;13.00;;
24421;SDS011;12600;53.326;-6.298;2024-01-07T14:26:29;33.90;;;16.88;;
24421;SDS011;12600;53.326;-6.298;2024-01-07T14:29:18;34.65;;;20.60;;
24421;SDS011;12600;53.326;-6.298;2024-01-07T14:32:08;34.63;;;19.88;;
24421;SDS011;12600;53.326;-6.298;2024-01-07T14:34:59;41.67;;;24.00;;
24421;SDS011;12600;53.326;-6.298;2024-01-07T14:37:50;34.92;;;17.40;;
24421;SDS011;12600;53.326;-6.298;2024-01-07T14:40:39;35.65;;;21.30;;
24421;SDS011;12600;53.326;-6.298;2024-01-07T14:43:33;34.88;;;19.08;;
24421;SDS011;12600;53.326;-6.298;2024-01-07T14:46:23;52.10;;;28.98;;
24421;SDS011;12600;53.326;-6.298;2024-01-07T14:49:12;44.05;;;23.38;;
24421;SDS011;12600;53.326;-6.298;2024-01-07T14:52:02;39.70;;;21.60;;
24421;SDS011;12600;53.326;-6.298;2024-01-07T14:54:54;43.85;;;22.30;;
24421;SDS011;12600;53.326;-6.298;2024-01-07T14:57:43;51.33;;;24.50;;
24421;SDS011;12600;53.326;-6.298;2024-01-07T15:00:33;50.97;;;25.60;;
24421;SDS011;12600;53.326;-6.298;2024-01-07T15:03:22;53.28;;;26.08;;
24421;SDS011;12600;53.326;-6.298;2024-01-07T15:06:12;55.92;;;26.58;;
24421;SDS011;12600;53.326;-6.298;2024-01-07T15:09:02;59.00;;;27.23;;
24421;SDS011;12600;53.326;-6.298;2024-01-07T15:11:54;54.90;;;27.90;;
24421;SDS011;12600;53.326;-6.298;2024-01-07T15:14:43;60.97;;;29.10;;
24421;SDS011;12600;53.326;-6.298;2024-01-07T15:17:32;57.40;;;28.58;;
24421;SDS011;12600;53.326;-6.298;2024-01-07T15:20:22;57.92;;;31.35;;
24421;SDS011;12600;53.326;-6.298;2024-01-07T15:23:11;50.30;;;28.58;;
24421;SDS011;12600;53.326;-6.298;2024-01-07T15:26:01;52.08;;;26.35;;
24421;SDS011;12600;53.326;-6.298;2024-01-07T15:28:52;53.08;;;28.80;;
24421;SDS011;12600;53.326;-6.298;2024-01-07T15:31:41;56.90;;;27.85;;
24421;SDS011;12600;53.326;-6.298;2024-01-07T15:34:31;54.40;;;28.02;;
24421;SDS011;12600;53.326;-6.298;2024-01-07T15:37:21;55.00;;;29.73;;
24421;SDS011;12600;53.326;-6.298;2024-01-07T15:40:10;63.25;;;30.38;;
24421;SDS011;12600;53.326;-6.298;2024-01-07T15:43:01;52.60;;;28.50;;
24421;SDS011;12600;53.326;-6.298;2024-01-07T15:45:53;56.88;;;27.67;;
24421;SDS011;12600;53.326;-6.298;2024-01-07T15:48:42;62.78;;;30.40;;
24421;SDS011;12600;53.326;-6.298;2024-01-07T15:51:31;64.40;;;31.40;;
24421;SDS011;12600;53.326;-6.298;2024-01-07T15:54:21;69.22;;;34.97;;
24421;SDS011;12600;53.326;-6.298;2024-01-07T15:57:10;57.13;;;31.52;;
24421;SDS011;12600;53.326;-6.298;2024-01-07T16:00:00;67.60;;;34.05;;
24421;SDS011;12600;53.326;-6.298;2024-01-07T16:02:52;70.57;;;36.55;;
24421;SDS011;12600;53.326;-6.298;2024-01-07T16:05:41;79.07;;;37.22;;
24421;SDS011;12600;53.326;-6.298;2024-01-07T16:08:31;71.63;;;35.90;;
24421;SDS011;12600;53.326;-6.298;2024-01-07T16:11:21;74.05;;;34.70;;
24421;SDS011;12600;53.326;-6.298;2024-01-07T16:14:11;94.45;;;41.55;;
24421;SDS011;12600;53.326;-6.298;2024-01-07T16:17:01;80.65;;;38.45;;
24421;SDS011;12600;53.326;-6.298;2024-01-07T16:19:53;116.95;;;49.15;;
24421;SDS011;12600;53.326;-6.298;2024-01-07T16:22:42;76.82;;;42.15;;